Godwin, North Carolina
Current Conditions -  °F | °C
As of 2:55 PM on Friday 19 Dec 2014 (Local Time) from KHRJ Reporting Station
Clear Clear  
Wind Chill: 54°   Ceiling: Unl
Heat Index: 54°   Visibility: 10mi
Dew Point: 22°   Wind: 0mph
Humidity: 29%   Direction: NA
Pressure: 30.13"   Gusts: NA
Location:  35.22°N, 78.68°W
Report Text: KHRJ 191955Z AUTO 00000KT 10SM CLR 12/M05 A3013 RMK AO2 T01241054
Loading
Personal Weather Stations






























Interactive Weather Map New forecast layout! Learn more

10-Day Weather Forecast

Advertisements
Track Severe Weather on mobile